Adak, Alaska
Current Conditions -  °F | °C
As of 9:16 PM on Wednesday 17 Dec 2014 (Local Time) from PADK Reporting Station
Clear Clear  
Wind Chill: -8°   Ceiling: Unl
Heat Index: -8°   Visibility: 10mi
Dew Point: -10°   Wind: 0mph
Humidity: 86%   Direction: NA
Pressure: 29.41"   Gusts: NA
Location:  51.88°N, 176.66°W
Report Text: PADK 180716Z AUTO 00000KT 10SM CLR M08/M10 A2941 RMK AO1
Loading
Personal Weather Stations






























Interactive Weather Map New forecast layout! Learn more

10-Day Weather Forecast

Advertisements
Track Severe Weather on mobile